Time,TemperatureF,DewpointF,PressureIn,WindDirection,WindDirectionDegrees,WindSpeedMPH,WindSpeedGustMPH,Humidity,HourlyPrecipIn,Conditions,Clouds,dailyrainin,SoftwareType,DateUTC
2013-02-16 00:21:00,45.0,6.0,-100.00,ESE,104,6.0,14.0,20,0.00,,,0.00,,2013-02-16 08:21:00,
2013-02-16 00:31:00,45.0,6.0,-100.00,ESE,104,6.0,14.0,20,0.00,,,0.00,,2013-02-16 08:31:00,
2013-02-16 00:41:00,45.0,6.0,-100.00,ESE,104,6.0,14.0,20,0.00,,,0.00,,2013-02-16 08:41:00,
2013-02-16 00:52:00,45.0,6.0,-100.00,ESE,104,6.0,14.0,20,0.00,,,0.00,,2013-02-16 08:52:00,
2013-02-16 01:21:00,45.0,6.0,-100.00,ESE,102,6.0,12.0,20,0.00,,,0.00,,2013-02-16 09:21:00,
2013-02-16 01:31:00,45.0,6.0,-100.00,ESE,102,6.0,12.0,20,0.00,,,0.00,,2013-02-16 09:31:00,
2013-02-16 01:42:00,45.0,6.0,-100.00,ESE,102,6.0,12.0,20,0.00,,,0.00,,2013-02-16 09:42:00,
2013-02-16 01:51:00,45.0,6.0,-100.00,ESE,102,6.0,12.0,20,0.00,,,0.00,,2013-02-16 09:51:00,
2013-02-16 02:21:00,45.0,7.0,-100.00,ESE,103,7.0,15.0,21,0.00,,,-99.99,,2013-02-16 10:21:00,
2013-02-16 02:31:00,45.0,7.0,-100.00,ESE,103,7.0,15.0,21,0.00,,,-99.99,,2013-02-16 10:31:00,
2013-02-16 02:41:00,45.0,7.0,-100.00,ESE,103,7.0,15.0,21,0.00,,,-99.99,,2013-02-16 10:41:00,
2013-02-16 02:51:00,45.0,7.0,-100.00,ESE,103,7.0,15.0,21,0.00,,,-99.99,,2013-02-16 10:51:00,
2013-02-16 03:22:00,45.0,7.0,-100.00,ESE,111,7.0,16.0,21,0.00,,,0.00,,2013-02-16 11:22:00,
2013-02-16 03:31:00,45.0,7.0,-100.00,ESE,111,7.0,16.0,21,0.00,,,0.00,,2013-02-16 11:31:00,
2013-02-16 03:42:00,45.0,7.0,-100.00,ESE,111,7.0,16.0,21,0.00,,,0.00,,2013-02-16 11:42:00,
2013-02-16 03:52:00,45.0,7.0,-100.00,ESE,111,7.0,16.0,21,0.00,,,0.00,,2013-02-16 11:52:00,
2013-02-16 04:12:00,45.0,7.0,-100.00,ESE,111,8.0,17.0,21,0.00,,,0.00,,2013-02-16 12:12:00,
2013-02-16 04:22:00,45.0,7.0,-100.00,ESE,111,8.0,17.0,21,0.00,,,0.00,,2013-02-16 12:22:00,
2013-02-16 04:32:00,45.0,7.0,-100.00,ESE,111,8.0,17.0,21,0.00,,,0.00,,2013-02-16 12:32:00,
2013-02-16 04:42:00,45.0,7.0,-100.00,ESE,111,8.0,17.0,21,0.00,,,0.00,,2013-02-16 12:42:00,
2013-02-16 04:52:00,45.0,7.0,-100.00,ESE,111,8.0,17.0,21,0.00,,,0.00,,2013-02-16 12:52:00,
2013-02-16 05:11:00,45.0,8.0,-100.00,ESE,103,9.0,17.0,22,0.00,,,0.00,,2013-02-16 13:11:00,
2013-02-16 05:21:00,45.0,8.0,-100.00,ESE,103,9.0,17.0,22,0.00,,,0.00,,2013-02-16 13:21:00,
2013-02-16 05:31:00,45.0,8.0,-100.00,ESE,103,9.0,17.0,22,0.00,,,0.00,,2013-02-16 13:31:00,
2013-02-16 05:41:00,45.0,8.0,-100.00,ESE,103,9.0,17.0,22,0.00,,,0.00,,2013-02-16 13:41:00,
2013-02-16 05:51:00,45.0,8.0,-100.00,ESE,103,9.0,17.0,22,0.00,,,0.00,,2013-02-16 13:51:00,
2013-02-16 06:11:00,45.0,8.0,-100.00,ESE,107,10.0,22.0,22,0.00,,,0.00,,2013-02-16 14:11:00,
2013-02-16 06:21:00,45.0,8.0,-100.00,ESE,107,10.0,22.0,22,0.00,,,0.00,,2013-02-16 14:21:00,
2013-02-16 06:32:00,45.0,8.0,-100.00,ESE,107,10.0,22.0,22,0.00,,,0.00,,2013-02-16 14:32:00,
2013-02-16 06:41:00,45.0,8.0,-100.00,ESE,107,10.0,22.0,22,0.00,,,0.00,,2013-02-16 14:41:00,
2013-02-16 06:51:00,45.0,8.0,-100.00,ESE,107,10.0,22.0,22,0.00,,,0.00,,2013-02-16 14:51:00,
2013-02-16 07:21:00,44.0,9.0,-100.00,ESE,108,10.0,19.0,23,0.00,,,-99.99,,2013-02-16 15:21:00,
2013-02-16 07:31:00,44.0,9.0,-100.00,ESE,108,10.0,19.0,23,0.00,,,-99.99,,2013-02-16 15:31:00,
2013-02-16 07:41:00,44.0,9.0,-100.00,ESE,108,10.0,19.0,23,0.00,,,-99.99,,2013-02-16 15:41:00,
2013-02-16 07:51:00,44.0,9.0,-100.00,ESE,108,10.0,19.0,23,0.00,,,-99.99,,2013-02-16 15:51:00,
2013-02-16 08:11:00,45.0,8.0,-100.00,East,97,10.0,23.0,22,0.00,,,-99.99,,2013-02-16 16:11:00,
2013-02-16 08:21:00,45.0,8.0,-100.00,East,97,10.0,23.0,22,0.00,,,-99.99,,2013-02-16 16:21:00,
2013-02-16 08:32:00,45.0,8.0,-100.00,East,97,10.0,23.0,22,0.00,,,-99.99,,2013-02-16 16:32:00,
2013-02-16 08:41:00,45.0,8.0,-100.00,East,97,10.0,23.0,22,0.00,,,-99.99,,2013-02-16 16:41:00,
2013-02-16 08:51:00,45.0,8.0,-100.00,East,97,10.0,23.0,22,0.00,,,-99.99,,2013-02-16 16:51:00,
2013-02-16 09:21:00,47.0,7.0,-100.00,East,96,11.0,22.0,19,0.00,,,0.00,,2013-02-16 17:21:00,
2013-02-16 09:32:00,47.0,7.0,-100.00,East,96,11.0,22.0,19,0.00,,,0.00,,2013-02-16 17:32:00,
2013-02-16 09:41:00,47.0,7.0,-100.00,East,96,11.0,22.0,19,0.00,,,0.00,,2013-02-16 17:41:00,
2013-02-16 09:52:00,47.0,7.0,-100.00,East,96,11.0,22.0,19,0.00,,,0.00,,2013-02-16 17:52:00,
2013-02-16 10:11:00,47.0,7.0,-100.00,East,98,10.0,23.0,19,0.00,,,0.00,,2013-02-16 18:11:00,
2013-02-16 10:21:00,47.0,7.0,-100.00,East,98,10.0,23.0,19,0.00,,,0.00,,2013-02-16 18:21:00,
2013-02-16 10:33:00,47.0,7.0,-100.00,East,98,10.0,23.0,19,0.00,,,0.00,,2013-02-16 18:33:00,
2013-02-16 10:41:00,47.0,7.0,-100.00,East,98,10.0,23.0,19,0.00,,,0.00,,2013-02-16 18:41:00,
2013-02-16 10:51:00,47.0,7.0,-100.00,East,98,10.0,23.0,19,0.00,,,0.00,,2013-02-16 18:51:00,
2013-02-16 11:11:00,48.0,7.0,-100.00,ESE,112,8.0,22.0,18,0.00,,,0.00,,2013-02-16 19:11:00,
2013-02-16 11:21:00,48.0,7.0,-100.00,ESE,112,8.0,22.0,18,0.00,,,0.00,,2013-02-16 19:21:00,
2013-02-16 11:31:00,48.0,7.0,-100.00,ESE,112,8.0,22.0,18,0.00,,,0.00,,2013-02-16 19:31:00,
2013-02-16 11:42:00,48.0,7.0,-100.00,ESE,112,8.0,22.0,18,0.00,,,0.00,,2013-02-16 19:42:00,
2013-02-16 11:52:00,48.0,7.0,-100.00,ESE,112,8.0,22.0,18,0.00,,,0.00,,2013-02-16 19:52:00,
2013-02-16 12:11:00,50.0,8.0,-100.00,ESE,105,9.0,18.0,18,0.00,,,0.00,,2013-02-16 20:11:00,
2013-02-16 12:21:00,50.0,8.0,-100.00,ESE,105,9.0,18.0,18,0.00,,,0.00,,2013-02-16 20:21:00,
2013-02-16 12:32:00,50.0,8.0,-100.00,ESE,105,9.0,18.0,18,0.00,,,0.00,,2013-02-16 20:32:00,
2013-02-16 12:42:00,50.0,8.0,-100.00,ESE,105,9.0,18.0,18,0.00,,,0.00,,2013-02-16 20:42:00,
2013-02-16 12:52:00,50.0,8.0,-100.00,ESE,105,9.0,18.0,18,0.00,,,0.00,,2013-02-16 20:52:00,
2013-02-16 13:11:00,51.0,6.0,-100.00,ESE,103,7.0,21.0,16,0.00,,,0.00,,2013-02-16 21:11:00,
2013-02-16 13:21:00,51.0,6.0,-100.00,ESE,103,7.0,21.0,16,0.00,,,0.00,,2013-02-16 21:21:00,
2013-02-16 13:31:00,51.0,6.0,-100.00,ESE,103,7.0,21.0,16,0.00,,,0.00,,2013-02-16 21:31:00,
2013-02-16 13:41:00,51.0,6.0,-100.00,ESE,103,7.0,21.0,16,0.00,,,0.00,,2013-02-16 21:41:00,
2013-02-16 13:51:00,51.0,6.0,-100.00,ESE,103,7.0,21.0,16,0.00,,,0.00,,2013-02-16 21:51:00,
2013-02-16 14:11:00,53.0,8.0,-100.00,ENE,78,4.0,14.0,16,0.00,,,0.00,,2013-02-16 22:11:00,
2013-02-16 14:21:00,53.0,8.0,-100.00,ENE,78,4.0,14.0,16,0.00,,,0.00,,2013-02-16 22:21:00,
2013-02-16 14:32:00,53.0,8.0,-100.00,ENE,78,4.0,14.0,16,0.00,,,0.00,,2013-02-16 22:32:00,
2013-02-16 14:42:00,53.0,8.0,-100.00,ENE,78,4.0,14.0,16,0.00,,,0.00,,2013-02-16 22:42:00,
2013-02-16 14:51:00,53.0,8.0,-100.00,ENE,78,4.0,14.0,16,0.00,,,0.00,,2013-02-16 22:51:00,
2013-02-16 15:21:00,57.0,10.0,-100.00,SE,133,5.0,11.0,15,0.00,,,0.00,,2013-02-16 23:21:00,
2013-02-16 15:42:00,57.0,10.0,-100.00,SE,133,5.0,11.0,15,0.00,,,0.00,,2013-02-16 23:42:00,
2013-02-16 15:52:00,57.0,10.0,-100.00,SE,133,5.0,11.0,15,0.00,,,0.00,,2013-02-16 23:52:00,
2013-02-16 16:21:00,55.0,10.0,-100.00,SSE,153,4.0,12.0,16,0.00,,,0.00,,2013-02-17 00:21:00,
2013-02-16 16:31:00,55.0,10.0,-100.00,SSE,153,4.0,12.0,16,0.00,,,0.00,,2013-02-17 00:31:00,
2013-02-16 16:41:00,55.0,10.0,-100.00,SSE,153,4.0,12.0,16,0.00,,,0.00,,2013-02-17 00:41:00,
2013-02-16 16:51:00,55.0,10.0,-100.00,SSE,153,4.0,12.0,16,0.00,,,0.00,,2013-02-17 00:51:00,
2013-02-16 17:21:00,47.0,17.0,-100.00,SSE,158,2.0,8.0,30,0.00,,,0.00,,2013-02-17 01:21:00,
2013-02-16 17:31:00,47.0,17.0,-100.00,SSE,158,2.0,8.0,30,0.00,,,0.00,,2013-02-17 01:31:00,
2013-02-16 17:41:00,47.0,17.0,-100.00,SSE,158,2.0,8.0,30,0.00,,,0.00,,2013-02-17 01:41:00,
2013-02-16 17:52:00,47.0,17.0,-100.00,SSE,158,2.0,8.0,30,0.00,,,0.00,,2013-02-17 01:52:00,
2013-02-16 18:21:00,38.0,16.0,-100.00,ESE,107,2.0,4.0,40,0.00,,,0.00,,2013-02-17 02:21:00,
2013-02-16 18:31:00,38.0,16.0,-100.00,ESE,107,2.0,4.0,40,0.00,,,0.00,,2013-02-17 02:31:00,
2013-02-16 18:41:00,38.0,16.0,-100.00,ESE,107,2.0,4.0,40,0.00,,,0.00,,2013-02-17 02:41:00,
2013-02-16 18:52:00,38.0,16.0,-100.00,ESE,107,2.0,4.0,40,0.00,,,0.00,,2013-02-17 02:52:00,
2013-02-16 19:11:00,36.0,15.0,-100.00,ESE,112,3.0,4.0,41,0.00,,,0.00,,2013-02-17 03:11:00,
2013-02-16 19:21:00,36.0,15.0,-100.00,ESE,112,3.0,4.0,41,0.00,,,0.00,,2013-02-17 03:21:00,
2013-02-16 19:31:00,36.0,15.0,-100.00,ESE,112,3.0,4.0,41,0.00,,,0.00,,2013-02-17 03:31:00,
2013-02-16 19:42:00,36.0,15.0,-100.00,ESE,112,3.0,4.0,41,0.00,,,0.00,,2013-02-17 03:42:00,
2013-02-16 19:51:00,36.0,15.0,-100.00,ESE,112,3.0,4.0,41,0.00,,,0.00,,2013-02-17 03:51:00,
2013-02-16 20:11:00,35.0,13.0,-100.00,ESE,118,3.0,4.0,39,0.00,,,0.00,,2013-02-17 04:11:00,
2013-02-16 20:21:00,35.0,13.0,-100.00,ESE,118,3.0,4.0,39,0.00,,,0.00,,2013-02-17 04:21:00,
2013-02-16 20:31:00,35.0,13.0,-100.00,ESE,118,3.0,4.0,39,0.00,,,0.00,,2013-02-17 04:31:00,
2013-02-16 20:41:00,35.0,13.0,-100.00,ESE,118,3.0,4.0,39,0.00,,,0.00,,2013-02-17 04:41:00,
2013-02-16 20:51:00,35.0,13.0,-100.00,ESE,118,3.0,4.0,39,0.00,,,0.00,,2013-02-17 04:51:00,
2013-02-16 21:22:00,34.0,12.0,-100.00,ESE,115,3.0,4.0,40,0.00,,,0.00,,2013-02-17 05:22:00,
2013-02-16 21:32:00,34.0,12.0,-100.00,ESE,115,3.0,4.0,40,0.00,,,0.00,,2013-02-17 05:32:00,
2013-02-16 21:42:00,34.0,12.0,-100.00,ESE,115,3.0,4.0,40,0.00,,,0.00,,2013-02-17 05:42:00,
2013-02-16 21:52:00,34.0,12.0,-100.00,ESE,115,3.0,4.0,40,0.00,,,0.00,,2013-02-17 05:52:00,
2013-02-16 22:11:00,34.0,13.0,-100.00,ESE,114,3.0,5.0,42,0.00,,,0.00,,2013-02-17 06:11:00,
2013-02-16 22:21:00,34.0,13.0,-100.00,ESE,114,3.0,5.0,42,0.00,,,0.00,,2013-02-17 06:21:00,
2013-02-16 22:31:00,34.0,13.0,-100.00,ESE,114,3.0,5.0,42,0.00,,,0.00,,2013-02-17 06:31:00,
2013-02-16 22:41:00,34.0,13.0,-100.00,ESE,114,3.0,5.0,42,0.00,,,0.00,,2013-02-17 06:41:00,
2013-02-16 22:51:00,34.0,13.0,-100.00,ESE,114,3.0,5.0,42,0.00,,,0.00,,2013-02-17 06:51:00,
2013-02-16 23:11:00,33.0,13.0,-100.00,ESE,121,3.0,4.0,44,-99.99,,,0.00,,2013-02-17 07:11:00,
2013-02-16 23:21:00,33.0,13.0,-100.00,ESE,121,3.0,4.0,44,-99.99,,,0.00,,2013-02-17 07:21:00,
2013-02-16 23:31:00,33.0,13.0,-100.00,ESE,121,3.0,4.0,44,-99.99,,,0.00,,2013-02-17 07:31:00,
2013-02-16 23:41:00,33.0,13.0,-100.00,ESE,121,3.0,4.0,44,-99.99,,,0.00,,2013-02-17 07:41:00,
2013-02-16 23:51:00,33.0,13.0,-100.00,ESE,121,3.0,4.0,44,-99.99,,,0.00,,2013-02-17 07:51:00,